sensor_id;sensor_type;location;lat;lon;timestamp;temperature;humidity
65637;DHT22;52327;42.622;23.316;2022-11-27T00:00:20;0.43;85.70
65637;DHT22;52327;42.622;23.316;2022-11-27T00:02:46;0.33;86.42
65637;DHT22;52327;42.622;23.316;2022-11-27T00:05:11;0.24;86.84
65637;DHT22;52327;42.622;23.316;2022-11-27T00:07:37;0.18;87.42
65637;DHT22;52327;42.622;23.316;2022-11-27T00:10:02;0.24;87.58
65637;DHT22;52327;42.622;23.316;2022-11-27T00:12:29;0.24;87.84
65637;DHT22;52327;42.622;23.316;2022-11-27T00:14:55;0.30;88.02
65637;DHT22;52327;42.622;23.316;2022-11-27T00:17:20;0.27;87.90
65637;DHT22;52327;42.622;23.316;2022-11-27T00:19:45;0.21;87.59
65637;DHT22;52327;42.622;23.316;2022-11-27T00:22:11;0.21;87.69
65637;DHT22;52327;42.622;23.316;2022-11-27T00:24:36;0.24;87.70
65637;DHT22;52327;42.622;23.316;2022-11-27T00:27:02;0.28;88.22
65637;DHT22;52327;42.622;23.316;2022-11-27T00:29:27;0.28;87.84
65637;DHT22;52327;42.622;23.316;2022-11-27T00:31:55;0.31;87.73
65637;DHT22;52327;42.622;23.316;2022-11-27T00:34:21;0.43;87.37
65637;DHT22;52327;42.622;23.316;2022-11-27T00:36:46;0.54;86.79
65637;DHT22;52327;42.622;23.316;2022-11-27T00:39:11;0.47;86.95
65637;DHT22;52327;42.622;23.316;2022-11-27T00:41:37;0.45;87.34
65637;DHT22;52327;42.622;23.316;2022-11-27T00:44:03;0.53;87.31
65637;DHT22;52327;42.622;23.316;2022-11-27T00:46:30;0.54;87.39
65637;DHT22;52327;42.622;23.316;2022-11-27T00:48:58;0.65;85.21
65637;DHT22;52327;42.622;23.316;2022-11-27T00:51:24;0.71;86.12
65637;DHT22;52327;42.622;23.316;2022-11-27T00:53:50;0.58;86.65
65637;DHT22;52327;42.622;23.316;2022-11-27T00:56:18;0.47;87.24
65637;DHT22;52327;42.622;23.316;2022-11-27T00:58:45;0.41;87.36
65637;DHT22;52327;42.622;23.316;2022-11-27T01:01:17;0.38;87.45
65637;DHT22;52327;42.622;23.316;2022-11-27T01:03:43;0.36;87.65
65637;DHT22;52327;42.622;23.316;2022-11-27T01:06:09;0.41;87.97
65637;DHT22;52327;42.622;23.316;2022-11-27T01:08:35;0.51;87.79
65637;DHT22;52327;42.622;23.316;2022-11-27T01:11:01;0.43;87.49
65637;DHT22;52327;42.622;23.316;2022-11-27T01:13:29;0.33;87.72
65637;DHT22;52327;42.622;23.316;2022-11-27T01:16:02;0.30;87.91
65637;DHT22;52327;42.622;23.316;2022-11-27T01:18:28;0.33;87.00
65637;DHT22;52327;42.622;23.316;2022-11-27T01:20:54;0.37;87.47
65637;DHT22;52327;42.622;23.316;2022-11-27T01:23:21;0.31;87.65
65637;DHT22;52327;42.622;23.316;2022-11-27T01:25:46;0.24;87.95
65637;DHT22;52327;42.622;23.316;2022-11-27T01:28:13;0.20;88.60
65637;DHT22;52327;42.622;23.316;2022-11-27T01:30:39;0.36;88.05
65637;DHT22;52327;42.622;23.316;2022-11-27T01:33:05;0.41;87.77
65637;DHT22;52327;42.622;23.316;2022-11-27T01:35:30;0.30;87.90
65637;DHT22;52327;42.622;23.316;2022-11-27T01:37:56;0.27;88.15
65637;DHT22;52327;42.622;23.316;2022-11-27T01:40:22;0.21;88.43
65637;DHT22;52327;42.622;23.316;2022-11-27T01:42:47;0.21;88.50
65637;DHT22;52327;42.622;23.316;2022-11-27T01:45:15;0.27;88.67
65637;DHT22;52327;42.622;23.316;2022-11-27T01:47:58;0.25;88.85
65637;DHT22;52327;42.622;23.316;2022-11-27T01:50:31;0.33;89.33
65637;DHT22;52327;42.622;23.316;2022-11-27T01:53:12;0.50;88.76
65637;DHT22;52327;42.622;23.316;2022-11-27T01:55:39;0.60;88.76
65637;DHT22;52327;42.622;23.316;2022-11-27T01:58:09;0.69;88.78
65637;DHT22;52327;42.622;23.316;2022-11-27T02:00:36;0.92;87.41
65637;DHT22;52327;42.622;23.316;2022-11-27T02:03:02;0.93;87.51
65637;DHT22;52327;42.622;23.316;2022-11-27T02:05:28;0.86;87.77
65637;DHT22;52327;42.622;23.316;2022-11-27T02:07:56;0.96;87.69
65637;DHT22;52327;42.622;23.316;2022-11-27T02:10:46;0.98;87.63
65637;DHT22;52327;42.622;23.316;2022-11-27T02:16:33;1.05;87.58
65637;DHT22;52327;42.622;23.316;2022-11-27T02:19:15;1.15;87.77
65637;DHT22;52327;42.622;23.316;2022-11-27T02:25:05;1.26;87.56
65637;DHT22;52327;42.622;23.316;2022-11-27T02:28:01;1.43;87.66
65637;DHT22;52327;42.622;23.316;2022-11-27T02:30:32;1.53;87.64
65637;DHT22;52327;42.622;23.316;2022-11-27T02:32:59;1.54;87.46
65637;DHT22;52327;42.622;23.316;2022-11-27T02:38:06;1.67;87.42
65637;DHT22;52327;42.622;23.316;2022-11-27T02:40:39;1.77;87.15
65637;DHT22;52327;42.622;23.316;2022-11-27T02:43:11;1.82;87.22
65637;DHT22;52327;42.622;23.316;2022-11-27T02:45:41;1.93;87.24
65637;DHT22;52327;42.622;23.316;2022-11-27T02:48:08;1.97;87.06
65637;DHT22;52327;42.622;23.316;2022-11-27T02:50:36;1.91;86.79
65637;DHT22;52327;42.622;23.316;2022-11-27T02:53:07;2.01;86.05
65637;DHT22;52327;42.622;23.316;2022-11-27T02:55:37;2.02;86.32
65637;DHT22;52327;42.622;23.316;2022-11-27T02:58:08;2.09;86.00
65637;DHT22;52327;42.622;23.316;2022-11-27T03:00:35;2.18;86.16
65637;DHT22;52327;42.622;23.316;2022-11-27T03:03:05;2.19;85.70
65637;DHT22;52327;42.622;23.316;2022-11-27T03:05:34;2.21;86.12
65637;DHT22;52327;42.622;23.316;2022-11-27T03:08:05;2.15;85.36
65637;DHT22;52327;42.622;23.316;2022-11-27T03:10:37;2.17;85.71
65637;DHT22;52327;42.622;23.316;2022-11-27T03:13:04;2.25;86.13
65637;DHT22;52327;42.622;23.316;2022-11-27T03:15:40;2.17;85.31
65637;DHT22;52327;42.622;23.316;2022-11-27T03:18:22;2.02;86.02
65637;DHT22;52327;42.622;23.316;2022-11-27T03:20:55;2.09;86.78
65637;DHT22;52327;42.622;23.316;2022-11-27T03:23:23;2.26;86.57
65637;DHT22;52327;42.622;23.316;2022-11-27T03:25:48;2.31;85.61
65637;DHT22;52327;42.622;23.316;2022-11-27T03:28:14;1.98;85.02
65637;DHT22;52327;42.622;23.316;2022-11-27T03:30:40;1.98;86.21
65637;DHT22;52327;42.622;23.316;2022-11-27T03:33:06;1.94;86.26
65637;DHT22;52327;42.622;23.316;2022-11-27T03:35:31;1.90;86.49
65637;DHT22;52327;42.622;23.316;2022-11-27T03:37:57;1.93;86.90
65637;DHT22;52327;42.622;23.316;2022-11-27T03:40:28;2.01;86.64
65637;DHT22;52327;42.622;23.316;2022-11-27T03:43:22;1.99;86.94
65637;DHT22;52327;42.622;23.316;2022-11-27T03:46:01;1.98;87.13
65637;DHT22;52327;42.622;23.316;2022-11-27T03:48:32;1.97;87.45
65637;DHT22;52327;42.622;23.316;2022-11-27T03:53:41;2.09;87.10
65637;DHT22;52327;42.622;23.316;2022-11-27T04:01:37;1.70;88.10
65637;DHT22;52327;42.622;23.316;2022-11-27T04:04:03;1.91;87.93
65637;DHT22;52327;42.622;23.316;2022-11-27T04:06:29;2.04;87.07
65637;DHT22;52327;42.622;23.316;2022-11-27T04:08:54;2.01;85.72
65637;DHT22;52327;42.622;23.316;2022-11-27T04:11:19;1.98;85.87
65637;DHT22;52327;42.622;23.316;2022-11-27T04:13:45;2.01;85.66
65637;DHT22;52327;42.622;23.316;2022-11-27T04:16:10;1.91;86.66
65637;DHT22;52327;42.622;23.316;2022-11-27T04:18:36;1.93;86.77
65637;DHT22;52327;42.622;23.316;2022-11-27T04:21:01;1.93;86.87
65637;DHT22;52327;42.622;23.316;2022-11-27T04:23:27;1.93;87.60
65637;DHT22;52327;42.622;23.316;2022-11-27T04:25:52;1.97;87.87
65637;DHT22;52327;42.622;23.316;2022-11-27T04:28:18;2.01;87.97
65637;DHT22;52327;42.622;23.316;2022-11-27T04:30:44;1.98;88.13
65637;DHT22;52327;42.622;23.316;2022-11-27T04:33:09;2.09;87.99
65637;DHT22;52327;42.622;23.316;2022-11-27T04:35:34;2.21;87.94
65637;DHT22;52327;42.622;23.316;2022-11-27T04:38:00;2.08;87.38
65637;DHT22;52327;42.622;23.316;2022-11-27T04:40:26;2.11;87.13
65637;DHT22;52327;42.622;23.316;2022-11-27T04:42:51;2.14;87.75
65637;DHT22;52327;42.622;23.316;2022-11-27T04:45:17;2.22;87.60
65637;DHT22;52327;42.622;23.316;2022-11-27T04:47:42;2.17;87.09
65637;DHT22;52327;42.622;23.316;2022-11-27T04:50:08;2.19;86.73
65637;DHT22;52327;42.622;23.316;2022-11-27T04:52:34;2.19;87.04
65637;DHT22;52327;42.622;23.316;2022-11-27T04:54:59;2.18;87.05
65637;DHT22;52327;42.622;23.316;2022-11-27T04:57:24;2.17;87.17
65637;DHT22;52327;42.622;23.316;2022-11-27T04:59:50;2.19;87.06
65637;DHT22;52327;42.622;23.316;2022-11-27T05:02:15;2.12;86.97
65637;DHT22;52327;42.622;23.316;2022-11-27T05:04:41;2.19;87.06
65637;DHT22;52327;42.622;23.316;2022-11-27T05:07:06;2.14;86.77
65637;DHT22;52327;42.622;23.316;2022-11-27T05:09:32;2.17;87.16
65637;DHT22;52327;42.622;23.316;2022-11-27T05:11:57;2.12;87.50
65637;DHT22;52327;42.622;23.316;2022-11-27T05:14:22;2.09;87.64
65637;DHT22;52327;42.622;23.316;2022-11-27T05:16:55;2.18;87.59
65637;DHT22;52327;42.622;23.316;2022-11-27T05:19:22;2.24;87.94
65637;DHT22;52327;42.622;23.316;2022-11-27T05:21:49;2.19;87.66
65637;DHT22;52327;42.622;23.316;2022-11-27T05:24:15;2.21;88.00
65637;DHT22;52327;42.622;23.316;2022-11-27T05:26:41;2.21;87.86
65637;DHT22;52327;42.622;23.316;2022-11-27T05:29:08;2.26;88.05
65637;DHT22;52327;42.622;23.316;2022-11-27T05:31:34;2.21;87.84
65637;DHT22;52327;42.622;23.316;2022-11-27T05:33:59;2.17;87.78
65637;DHT22;52327;42.622;23.316;2022-11-27T05:36:25;2.15;87.72
65637;DHT22;52327;42.622;23.316;2022-11-27T05:38:51;2.08;87.77
65637;DHT22;52327;42.622;23.316;2022-11-27T05:41:16;2.02;87.08
65637;DHT22;52327;42.622;23.316;2022-11-27T05:43:42;1.71;86.98
65637;DHT22;52327;42.622;23.316;2022-11-27T05:46:09;1.81;87.19
65637;DHT22;52327;42.622;23.316;2022-11-27T05:48:35;1.87;87.20
65637;DHT22;52327;42.622;23.316;2022-11-27T05:51:02;1.90;87.57
65637;DHT22;52327;42.622;23.316;2022-11-27T05:53:28;2.01;87.89
65637;DHT22;52327;42.622;23.316;2022-11-27T05:55:53;2.02;87.86
65637;DHT22;52327;42.622;23.316;2022-11-27T05:58:19;2.09;87.93
65637;DHT22;52327;42.622;23.316;2022-11-27T06:00:44;2.17;88.04
65637;DHT22;52327;42.622;23.316;2022-11-27T06:03:10;2.28;87.71
65637;DHT22;52327;42.622;23.316;2022-11-27T06:05:39;2.39;84.36
65637;DHT22;52327;42.622;23.316;2022-11-27T06:08:05;2.28;85.20
65637;DHT22;52327;42.622;23.316;2022-11-27T06:10:30;2.29;85.90
65637;DHT22;52327;42.622;23.316;2022-11-27T06:12:56;2.29;86.75
65637;DHT22;52327;42.622;23.316;2022-11-27T06:15:21;2.32;86.79
65637;DHT22;52327;42.622;23.316;2022-11-27T06:17:49;2.39;86.71
65637;DHT22;52327;42.622;23.316;2022-11-27T06:20:15;2.40;87.15
65637;DHT22;52327;42.622;23.316;2022-11-27T06:22:41;2.53;86.53
65637;DHT22;52327;42.622;23.316;2022-11-27T06:25:06;2.57;86.60
65637;DHT22;52327;42.622;23.316;2022-11-27T06:27:33;2.53;86.54
65637;DHT22;52327;42.622;23.316;2022-11-27T06:29:58;2.64;86.76
65637;DHT22;52327;42.622;23.316;2022-11-27T06:32:24;2.66;86.70
65637;DHT22;52327;42.622;23.316;2022-11-27T06:34:49;2.80;86.09
65637;DHT22;52327;42.622;23.316;2022-11-27T06:37:15;2.89;85.83
65637;DHT22;52327;42.622;23.316;2022-11-27T06:39:40;2.84;85.57
65637;DHT22;52327;42.622;23.316;2022-11-27T06:42:06;2.84;85.97
65637;DHT22;52327;42.622;23.316;2022-11-27T06:44:34;2.82;85.81
65637;DHT22;52327;42.622;23.316;2022-11-27T06:47:00;2.91;85.05
65637;DHT22;52327;42.622;23.316;2022-11-27T06:49:26;2.94;85.29
65637;DHT22;52327;42.622;23.316;2022-11-27T06:51:51;2.87;84.72
65637;DHT22;52327;42.622;23.316;2022-11-27T06:54:17;2.99;84.97
65637;DHT22;52327;42.622;23.316;2022-11-27T06:56:42;3.13;84.03
65637;DHT22;52327;42.622;23.316;2022-11-27T06:59:10;3.14;83.06
65637;DHT22;52327;42.622;23.316;2022-11-27T07:01:36;3.21;83.14
65637;DHT22;52327;42.622;23.316;2022-11-27T07:04:02;3.23;83.77
65637;DHT22;52327;42.622;23.316;2022-11-27T07:06:28;3.36;83.47
65637;DHT22;52327;42.622;23.316;2022-11-27T07:08:54;3.54;82.45
65637;DHT22;52327;42.622;23.316;2022-11-27T07:11:21;3.51;83.15
65637;DHT22;52327;42.622;23.316;2022-11-27T07:13:48;3.52;83.44
65637;DHT22;52327;42.622;23.316;2022-11-27T07:16:14;3.59;83.59
65637;DHT22;52327;42.622;23.316;2022-11-27T07:18:42;3.69;82.34
65637;DHT22;52327;42.622;23.316;2022-11-27T07:21:08;3.72;82.90
65637;DHT22;52327;42.622;23.316;2022-11-27T07:23:34;3.79;82.95
65637;DHT22;52327;42.622;23.316;2022-11-27T07:26:09;3.86;81.88
65637;DHT22;52327;42.622;23.316;2022-11-27T07:28:34;3.75;82.40
65637;DHT22;52327;42.622;23.316;2022-11-27T07:31:00;3.59;82.83
65637;DHT22;52327;42.622;23.316;2022-11-27T07:33:26;3.59;83.71
65637;DHT22;52327;42.622;23.316;2022-11-27T07:35:59;3.66;83.83
65637;DHT22;52327;42.622;23.316;2022-11-27T07:38:25;3.87;82.48
65637;DHT22;52327;42.622;23.316;2022-11-27T07:40:51;3.72;81.93
65637;DHT22;52327;42.622;23.316;2022-11-27T07:43:16;3.72;81.76
65637;DHT22;52327;42.622;23.316;2022-11-27T07:45:41;3.72;79.98
65637;DHT22;52327;42.622;23.316;2022-11-27T07:48:07;3.56;80.96
65637;DHT22;52327;42.622;23.316;2022-11-27T07:50:32;3.65;81.54
65637;DHT22;52327;42.622;23.316;2022-11-27T07:52:58;3.79;81.23
65637;DHT22;52327;42.622;23.316;2022-11-27T07:55:23;3.79;81.71
65637;DHT22;52327;42.622;23.316;2022-11-27T07:57:48;3.61;82.71
65637;DHT22;52327;42.622;23.316;2022-11-27T08:00:14;3.54;81.99
65637;DHT22;52327;42.622;23.316;2022-11-27T08:02:40;3.46;82.32
65637;DHT22;52327;42.622;23.316;2022-11-27T08:05:06;3.55;83.42
65637;DHT22;52327;42.622;23.316;2022-11-27T08:07:31;3.72;82.83
65637;DHT22;52327;42.622;23.316;2022-11-27T08:09:56;3.93;82.25
65637;DHT22;52327;42.622;23.316;2022-11-27T08:12:23;4.02;81.81
65637;DHT22;52327;42.622;23.316;2022-11-27T08:14:49;4.05;81.23
65637;DHT22;52327;42.622;23.316;2022-11-27T08:17:14;4.05;81.32
65637;DHT22;52327;42.622;23.316;2022-11-27T08:19:40;4.09;81.65
65637;DHT22;52327;42.622;23.316;2022-11-27T08:22:12;4.11;81.67
65637;DHT22;52327;42.622;23.316;2022-11-27T08:24:38;4.09;81.88
65637;DHT22;52327;42.622;23.316;2022-11-27T08:27:03;4.09;82.33
65637;DHT22;52327;42.622;23.316;2022-11-27T08:29:29;4.20;81.80
65637;DHT22;52327;42.622;23.316;2022-11-27T08:31:55;4.30;80.97
65637;DHT22;52327;42.622;23.316;2022-11-27T08:34:20;4.24;81.71
65637;DHT22;52327;42.622;23.316;2022-11-27T08:36:45;4.40;79.92
65637;DHT22;52327;42.622;23.316;2022-11-27T08:39:11;4.48;77.73
65637;DHT22;52327;42.622;23.316;2022-11-27T08:41:36;4.48;80.31
65637;DHT22;52327;42.622;23.316;2022-11-27T08:44:02;4.50;80.34
65637;DHT22;52327;42.622;23.316;2022-11-27T08:46:27;4.60;79.46
65637;DHT22;52327;42.622;23.316;2022-11-27T08:48:53;4.60;79.60
65637;DHT22;52327;42.622;23.316;2022-11-27T08:51:18;4.65;78.53
65637;DHT22;52327;42.622;23.316;2022-11-27T08:53:43;4.71;77.54
65637;DHT22;52327;42.622;23.316;2022-11-27T08:56:16;4.64;79.74
65637;DHT22;52327;42.622;23.316;2022-11-27T08:58:42;4.64;80.53
65637;DHT22;52327;42.622;23.316;2022-11-27T09:01:09;4.62;80.28
65637;DHT22;52327;42.622;23.316;2022-11-27T09:03:35;4.68;80.54
65637;DHT22;52327;42.622;23.316;2022-11-27T09:06:01;4.85;80.13
65637;DHT22;52327;42.622;23.316;2022-11-27T09:08:29;4.93;79.20
65637;DHT22;52327;42.622;23.316;2022-11-27T09:10:58;5.04;79.30
65637;DHT22;52327;42.622;23.316;2022-11-27T09:13:24;5.04;79.76
65637;DHT22;52327;42.622;23.316;2022-11-27T09:15:50;5.20;79.59
65637;DHT22;52327;42.622;23.316;2022-11-27T09:18:15;5.28;78.50
65637;DHT22;52327;42.622;23.316;2022-11-27T09:20:41;5.43;78.55
65637;DHT22;52327;42.622;23.316;2022-11-27T09:23:06;5.54;78.15
65637;DHT22;52327;42.622;23.316;2022-11-27T09:25:31;5.61;78.20
65637;DHT22;52327;42.622;23.316;2022-11-27T09:27:57;5.60;77.31
65637;DHT22;52327;42.622;23.316;2022-11-27T09:30:22;5.77;76.64
65637;DHT22;52327;42.622;23.316;2022-11-27T09:32:48;5.93;75.98
65637;DHT22;52327;42.622;23.316;2022-11-27T09:35:13;6.01;76.21
65637;DHT22;52327;42.622;23.316;2022-11-27T09:37:39;6.22;76.19
65637;DHT22;52327;42.622;23.316;2022-11-27T09:40:05;6.28;74.99
65637;DHT22;52327;42.622;23.316;2022-11-27T09:42:39;6.42;70.46
65637;DHT22;52327;42.622;23.316;2022-11-27T09:45:10;6.15;71.84
65637;DHT22;52327;42.622;23.316;2022-11-27T09:47:45;6.11;74.33
65637;DHT22;52327;42.622;23.316;2022-11-27T09:50:16;6.14;74.40
65637;DHT22;52327;42.622;23.316;2022-11-27T09:52:48;6.32;71.70
65637;DHT22;52327;42.622;23.316;2022-11-27T09:55:24;6.45;72.47
65637;DHT22;52327;42.622;23.316;2022-11-27T09:58:14;6.42;74.16
65637;DHT22;52327;42.622;23.316;2022-11-27T10:00:42;6.38;71.82
65637;DHT22;52327;42.622;23.316;2022-11-27T10:03:17;6.18;73.90
65637;DHT22;52327;42.622;23.316;2022-11-27T10:08:22;6.42;74.01
65637;DHT22;52327;42.622;23.316;2022-11-27T10:17:13;6.10;72.82
65637;DHT22;52327;42.622;23.316;2022-11-27T10:22:57;6.22;72.64
65637;DHT22;52327;42.622;23.316;2022-11-27T10:25:43;5.98;74.05
65637;DHT22;52327;42.622;23.316;2022-11-27T10:33:44;7.23;67.78
65637;DHT22;52327;42.622;23.316;2022-11-27T10:36:16;7.21;69.92
65637;DHT22;52327;42.622;23.316;2022-11-27T10:38:43;7.24;71.04
65637;DHT22;52327;42.622;23.316;2022-11-27T10:41:18;7.30;71.97
65637;DHT22;52327;42.622;23.316;2022-11-27T10:43:46;7.43;69.30
65637;DHT22;52327;42.622;23.316;2022-11-27T10:46:21;7.50;69.50
65637;DHT22;52327;42.622;23.316;2022-11-27T10:48:48;7.56;69.39
65637;DHT22;52327;42.622;23.316;2022-11-27T10:51:20;7.62;66.78
65637;DHT22;52327;42.622;23.316;2022-11-27T10:53:50;7.62;67.33
65637;DHT22;52327;42.622;23.316;2022-11-27T10:59:05;7.72;68.64
65637;DHT22;52327;42.622;23.316;2022-11-27T11:01:45;7.79;69.57
65637;DHT22;52327;42.622;23.316;2022-11-27T11:04:13;7.89;68.03
65637;DHT22;52327;42.622;23.316;2022-11-27T11:06:44;7.66;66.73
65637;DHT22;52327;42.622;23.316;2022-11-27T11:09:24;7.62;67.93
65637;DHT22;52327;42.622;23.316;2022-11-27T11:11:51;7.76;68.15
65637;DHT22;52327;42.622;23.316;2022-11-27T11:14:25;7.76;66.77
65637;DHT22;52327;42.622;23.316;2022-11-27T11:16:52;7.74;64.74
65637;DHT22;52327;42.622;23.316;2022-11-27T11:21:55;7.51;67.97
65637;DHT22;52327;42.622;23.316;2022-11-27T11:24:27;7.56;69.77
65637;DHT22;52327;42.622;23.316;2022-11-27T11:27:00;7.69;67.04
65637;DHT22;52327;42.622;23.316;2022-11-27T11:32:11;7.52;68.08
65637;DHT22;52327;42.622;23.316;2022-11-27T11:34:45;7.61;69.62
65637;DHT22;52327;42.622;23.316;2022-11-27T11:37:26;7.69;70.62
65637;DHT22;52327;42.622;23.316;2022-11-27T11:39:58;7.81;66.30
65637;DHT22;52327;42.622;23.316;2022-11-27T11:42:27;7.83;65.03
65637;DHT22;52327;42.622;23.316;2022-11-27T11:45:15;7.74;67.05
65637;DHT22;52327;42.622;23.316;2022-11-27T11:47:49;7.62;66.80
65637;DHT22;52327;42.622;23.316;2022-11-27T11:50:41;7.62;67.99
65637;DHT22;52327;42.622;23.316;2022-11-27T11:56:05;7.48;70.16
65637;DHT22;52327;42.622;23.316;2022-11-27T11:58:58;7.47;66.20
65637;DHT22;52327;42.622;23.316;2022-11-27T12:10:15;7.34;68.33
65637;DHT22;52327;42.622;23.316;2022-11-27T12:12:54;7.25;68.58
65637;DHT22;52327;42.622;23.316;2022-11-27T12:17:54;7.20;68.09
65637;DHT22;52327;42.622;23.316;2022-11-27T12:32:27;6.83;69.41
65637;DHT22;52327;42.622;23.316;2022-11-27T12:43:07;6.72;70.23
65637;DHT22;52327;42.622;23.316;2022-11-27T12:46:23;6.76;70.71
65637;DHT22;52327;42.622;23.316;2022-11-27T12:48:55;6.65;70.52
65637;DHT22;52327;42.622;23.316;2022-11-27T12:51:30;6.56;70.61
65637;DHT22;52327;42.622;23.316;2022-11-27T12:54:13;6.57;69.58
65637;DHT22;52327;42.622;23.316;2022-11-27T12:56:49;6.61;68.68
65637;DHT22;52327;42.622;23.316;2022-11-27T12:59:26;6.48;70.98
65637;DHT22;52327;42.622;23.316;2022-11-27T13:04:43;6.38;70.62
65637;DHT22;52327;42.622;23.316;2022-11-27T13:07:19;6.28;72.10
65637;DHT22;52327;42.622;23.316;2022-11-27T13:09:52;6.28;72.31
65637;DHT22;52327;42.622;23.316;2022-11-27T13:12:25;6.24;70.86
65637;DHT22;52327;42.622;23.316;2022-11-27T13:14:59;6.01;71.68
65637;DHT22;52327;42.622;23.316;2022-11-27T13:17:33;6.05;70.83
65637;DHT22;52327;42.622;23.316;2022-11-27T13:20:03;6.01;72.21
65637;DHT22;52327;42.622;23.316;2022-11-27T13:22:31;6.00;71.32
65637;DHT22;52327;42.622;23.316;2022-11-27T13:25:02;5.97;71.24
65637;DHT22;52327;42.622;23.316;2022-11-27T13:27:29;6.01;71.96
65637;DHT22;52327;42.622;23.316;2022-11-27T13:30:04;6.08;72.10
65637;DHT22;52327;42.622;23.316;2022-11-27T13:32:33;6.00;71.10
65637;DHT22;52327;42.622;23.316;2022-11-27T13:35:07;6.01;69.82
65637;DHT22;52327;42.622;23.316;2022-11-27T13:37:42;6.10;68.57
65637;DHT22;52327;42.622;23.316;2022-11-27T13:40:19;6.01;68.68
65637;DHT22;52327;42.622;23.316;2022-11-27T13:42:50;6.02;66.59
65637;DHT22;52327;42.622;23.316;2022-11-27T13:45:27;6.11;64.19
65637;DHT22;52327;42.622;23.316;2022-11-27T13:47:54;6.21;65.46
65637;DHT22;52327;42.622;23.316;2022-11-27T13:50:22;6.17;65.91
65637;DHT22;52327;42.622;23.316;2022-11-27T13:53:05;6.20;65.74
65637;DHT22;52327;42.622;23.316;2022-11-27T13:55:36;6.24;63.75
65637;DHT22;52327;42.622;23.316;2022-11-27T13:58:03;6.10;62.34
65637;DHT22;52327;42.622;23.316;2022-11-27T14:00:38;6.05;65.66
65637;DHT22;52327;42.622;23.316;2022-11-27T14:03:05;6.05;66.04
65637;DHT22;52327;42.622;23.316;2022-11-27T14:05:42;6.01;65.72
65637;DHT22;52327;42.622;23.316;2022-11-27T14:10:49;5.94;65.31
65637;DHT22;52327;42.622;23.316;2022-11-27T14:13:15;5.90;65.62
65637;DHT22;52327;42.622;23.316;2022-11-27T14:15:41;5.84;64.72
65637;DHT22;52327;42.622;23.316;2022-11-27T14:21:04;5.81;64.95
65637;DHT22;52327;42.622;23.316;2022-11-27T14:23:32;5.75;65.28
65637;DHT22;52327;42.622;23.316;2022-11-27T14:28:41;5.80;62.92
65637;DHT22;52327;42.622;23.316;2022-11-27T14:31:27;5.84;63.26
65637;DHT22;52327;42.622;23.316;2022-11-27T14:33:53;5.75;65.43
65637;DHT22;52327;42.622;23.316;2022-11-27T14:36:22;5.73;65.12
65637;DHT22;52327;42.622;23.316;2022-11-27T14:38:49;5.64;66.12
65637;DHT22;52327;42.622;23.316;2022-11-27T14:41:17;5.60;65.88
65637;DHT22;52327;42.622;23.316;2022-11-27T14:43:43;5.42;65.46
65637;DHT22;52327;42.622;23.316;2022-11-27T14:46:27;5.43;66.74
65637;DHT22;52327;42.622;23.316;2022-11-27T14:48:54;5.44;64.71
65637;DHT22;52327;42.622;23.316;2022-11-27T14:51:23;5.44;66.13
65637;DHT22;52327;42.622;23.316;2022-11-27T14:53:53;5.36;63.87
65637;DHT22;52327;42.622;23.316;2022-11-27T14:56:21;5.32;63.31
65637;DHT22;52327;42.622;23.316;2022-11-27T14:58:52;5.32;62.64
65637;DHT22;52327;42.622;23.316;2022-11-27T15:01:29;5.29;64.37
65637;DHT22;52327;42.622;23.316;2022-11-27T15:03:57;5.18;62.40
65637;DHT22;52327;42.622;23.316;2022-11-27T15:06:24;5.11;62.50
65637;DHT22;52327;42.622;23.316;2022-11-27T15:08:50;5.00;63.17
65637;DHT22;52327;42.622;23.316;2022-11-27T15:11:16;5.05;64.93
65637;DHT22;52327;42.622;23.316;2022-11-27T15:13:42;5.13;64.09
65637;DHT22;52327;42.622;23.316;2022-11-27T15:16:15;5.15;65.05
65637;DHT22;52327;42.622;23.316;2022-11-27T15:18:51;5.19;65.95
65637;DHT22;52327;42.622;23.316;2022-11-27T15:21:19;5.20;64.58
65637;DHT22;52327;42.622;23.316;2022-11-27T15:23:48;5.16;60.99
65637;DHT22;52327;42.622;23.316;2022-11-27T15:26:30;4.99;61.92
65637;DHT22;52327;42.622;23.316;2022-11-27T15:28:56;5.04;62.71
65637;DHT22;52327;42.622;23.316;2022-11-27T15:31:34;5.09;62.04
65637;DHT22;52327;42.622;23.316;2022-11-27T15:42:00;5.09;62.68
65637;DHT22;52327;42.622;23.316;2022-11-27T15:44:28;5.18;62.30
65637;DHT22;52327;42.622;23.316;2022-11-27T15:46:56;5.09;62.19
65637;DHT22;52327;42.622;23.316;2022-11-27T15:49:22;5.13;62.74
65637;DHT22;52327;42.622;23.316;2022-11-27T15:51:49;5.11;63.69
65637;DHT22;52327;42.622;23.316;2022-11-27T15:54:15;5.13;63.83
65637;DHT22;52327;42.622;23.316;2022-11-27T15:56:41;5.05;63.94
65637;DHT22;52327;42.622;23.316;2022-11-27T15:59:09;5.09;63.85
65637;DHT22;52327;42.622;23.316;2022-11-27T16:01:37;5.06;60.63
65637;DHT22;52327;42.622;23.316;2022-11-27T16:04:03;5.05;62.77
65637;DHT22;52327;42.622;23.316;2022-11-27T16:06:30;5.06;63.46
65637;DHT22;52327;42.622;23.316;2022-11-27T16:08:58;5.16;62.78
65637;DHT22;52327;42.622;23.316;2022-11-27T16:11:25;5.19;64.98
65637;DHT22;52327;42.622;23.316;2022-11-27T16:13:52;5.13;65.69
65637;DHT22;52327;42.622;23.316;2022-11-27T16:16:18;5.12;62.98
65637;DHT22;52327;42.622;23.316;2022-11-27T16:18:44;4.96;63.31
65637;DHT22;52327;42.622;23.316;2022-11-27T16:21:12;4.96;65.83
65637;DHT22;52327;42.622;23.316;2022-11-27T16:23:39;4.98;65.27
65637;DHT22;52327;42.622;23.316;2022-11-27T16:26:12;5.08;63.92
65637;DHT22;52327;42.622;23.316;2022-11-27T16:28:39;5.05;65.48
65637;DHT22;52327;42.622;23.316;2022-11-27T16:31:08;5.09;64.38
65637;DHT22;52327;42.622;23.316;2022-11-27T16:33:35;5.06;64.31
65637;DHT22;52327;42.622;23.316;2022-11-27T16:36:09;5.06;65.40
65637;DHT22;52327;42.622;23.316;2022-11-27T16:38:36;5.12;64.63
65637;DHT22;52327;42.622;23.316;2022-11-27T16:41:05;5.12;64.31
65637;DHT22;52327;42.622;23.316;2022-11-27T16:43:36;5.12;64.73
65637;DHT22;52327;42.622;23.316;2022-11-27T16:46:16;5.15;62.13
65637;DHT22;52327;42.622;23.316;2022-11-27T16:48:42;5.19;62.91
65637;DHT22;52327;42.622;23.316;2022-11-27T16:51:23;5.19;64.30
65637;DHT22;52327;42.622;23.316;2022-11-27T16:53:51;5.20;66.16
65637;DHT22;52327;42.622;23.316;2022-11-27T16:56:20;5.15;64.99
65637;DHT22;52327;42.622;23.316;2022-11-27T16:58:48;5.13;64.34
65637;DHT22;52327;42.622;23.316;2022-11-27T17:01:23;5.13;65.13
65637;DHT22;52327;42.622;23.316;2022-11-27T17:03:50;5.12;66.20
65637;DHT22;52327;42.622;23.316;2022-11-27T17:06:18;5.13;65.39
65637;DHT22;52327;42.622;23.316;2022-11-27T17:08:45;5.16;62.95
65637;DHT22;52327;42.622;23.316;2022-11-27T17:11:13;5.11;65.28
65637;DHT22;52327;42.622;23.316;2022-11-27T17:13:40;5.12;62.72
65637;DHT22;52327;42.622;23.316;2022-11-27T17:16:06;5.09;65.81